Time;durP1;ratioP1;P1;durP2;ratioP2;P2;SDS_P1;SDS_P2;PMS_P1;PMS_P2;Temp;Humidity;BMP_temperature;BMP_pressure;BME280_temperature;BME280_humidity;BME280_pressure;Samples;Min_cycle;Max_cycle;Signal;HPM_P1;HPM_P2
2022/07/04 00:00:38;;;;;;;3.22;1.73;;;21.30;1.00;;;;;;7369071;19;20037;-60
2022/07/04 00:03:08;;;;;;;2.80;1.45;;;21.30;1.00;;;;;;7368976;19;20010;-60
2022/07/04 00:05:38;;;;;;;3.28;1.38;;;21.30;1.00;;;;;;7359424;19;20014;-60
2022/07/04 00:08:09;;;;;;;4.00;1.40;;;21.20;1.00;;;;;;7388997;19;20018;-60
2022/07/04 00:10:41;;;;;;;5.88;1.30;;;21.20;1.00;;;;;;7367431;19;20070;-60
2022/07/04 00:13:11;;;;;;;1.98;1.50;;;21.30;1.00;;;;;;7368643;19;20016;-60
2022/07/04 00:15:41;;;;;;;2.53;1.58;;;21.20;1.00;;;;;;7360338;19;20082;-60
2022/07/04 00:18:11;;;;;;;4.32;1.70;;;21.20;1.00;;;;;;7368231;19;20074;-60
2022/07/04 00:20:41;;;;;;;2.25;1.77;;;21.10;1.00;;;;;;7367907;19;20014;-59
2022/07/04 00:23:10;;;;;;;3.63;1.60;;;21.00;1.00;;;;;;7390324;19;20086;-59
2022/07/04 00:25:43;;;;;;;4.90;1.60;;;20.90;1.00;;;;;;7360508;19;20541;-59
2022/07/04 00:28:13;;;;;;;2.95;1.70;;;20.90;1.00;;;;;;7367433;19;20073;-59
2022/07/04 00:30:43;;;;;;;3.08;1.55;;;20.90;1.00;;;;;;7367705;19;20026;-59
2022/07/04 00:33:16;;;;;;;1.60;1.20;;;20.90;1.00;;;;;;7368577;19;20037;-59
2022/07/04 00:35:46;;;;;;;3.80;1.70;;;20.90;1.00;;;;;;7361189;19;20136;-59
2022/07/04 00:38:16;;;;;;;4.18;1.52;;;20.90;1.00;;;;;;7389592;19;20017;-59
2022/07/04 00:40:48;;;;;;;2.95;1.60;;;20.90;1.00;;;;;;7367599;19;20407;-59
2022/07/04 00:43:25;;;;;;;4.35;1.90;;;20.90;1.00;;;;;;7367865;19;20082;-59
2022/07/04 00:45:55;;;;;;;2.67;1.75;;;20.90;1.00;;;;;;7359300;19;20497;-60
2022/07/04 00:48:25;;;;;;;2.33;1.70;;;20.90;1.00;;;;;;7368201;19;20014;-59
2022/07/04 00:50:55;;;;;;;7.55;1.83;;;20.90;1.00;;;;;;7366016;19;20428;-60
2022/07/04 00:53:25;;;;;;;1.60;1.42;;;20.60;1.00;;;;;;7388777;19;20492;-59
2022/07/04 00:55:58;;;;;;;2.97;1.75;;;20.70;1.00;;;;;;7359454;19;20470;-60
2022/07/04 00:58:28;;;;;;;3.42;1.70;;;20.60;1.00;;;;;;7365657;19;20010;-60
2022/07/04 01:00:58;;;;;;;4.13;1.50;;;20.50;1.00;;;;;;7366750;19;20010;-60
2022/07/04 01:03:27;;;;;;;3.45;1.67;;;20.50;1.00;;;;;;7367487;19;20018;-60
2022/07/04 01:05:58;;;;;;;4.30;1.63;;;20.50;1.00;;;;;;7359567;19;20014;-60
2022/07/04 01:08:28;;;;;;;3.63;1.75;;;20.50;1.00;;;;;;7365872;19;20089;-60
2022/07/04 01:11:01;;;;;;;3.10;1.70;;;20.40;1.00;;;;;;7387250;19;20035;-60
2022/07/04 01:13:32;;;;;;;2.88;1.67;;;20.40;1.00;;;;;;7366649;19;20045;-60
2022/07/04 01:16:01;;;;;;;3.88;1.70;;;20.30;1.00;;;;;;7358102;19;20509;-60
2022/07/04 01:18:32;;;;;;;4.00;1.90;;;20.40;1.00;;;;;;7363829;19;20034;-60
2022/07/04 01:21:05;;;;;;;4.60;1.77;;;20.40;1.00;;;;;;7367252;19;20014;-60
2022/07/04 01:23:38;;;;;;;3.38;1.70;;;20.30;1.00;;;;;;7365934;19;20018;-60
2022/07/04 01:26:09;;;;;;;4.13;1.60;;;20.20;1.00;;;;;;7379819;19;20018;-60
2022/07/04 01:28:39;;;;;;;3.50;1.40;;;20.20;1.00;;;;;;7364660;19;20110;-60
2022/07/04 01:31:09;;;;;;;7.78;1.58;;;20.10;1.00;;;;;;7364324;19;20021;-60
2022/07/04 01:33:40;;;;;;;4.00;1.70;;;20.00;1.00;;;;;;7366990;19;20014;-59
2022/07/04 01:36:12;;;;;;;2.35;1.40;;;20.00;1.00;;;;;;7358421;19;20011;-60
2022/07/04 01:38:42;;;;;;;5.75;1.73;;;20.00;1.00;;;;;;7365347;19;20395;-60
2022/07/04 01:41:12;;;;;;;3.17;1.67;;;19.90;1.00;;;;;;7388150;19;20014;-61
2022/07/04 01:43:42;;;;;;;5.18;1.80;;;19.90;1.00;;;;;;7366202;19;20492;-60
2022/07/04 01:46:12;;;;;;;4.30;1.50;;;20.00;1.00;;;;;;7356844;19;20007;-61
2022/07/04 01:48:42;;;;;;;4.30;1.70;;;19.90;1.00;;;;;;7364241;19;20014;-60
2022/07/04 01:51:14;;;;;;;2.38;1.70;;;19.90;1.00;;;;;;7364963;19;20329;-61
2022/07/04 01:53:44;;;;;;;4.25;1.85;;;19.90;1.00;;;;;;7365819;19;20026;-61
2022/07/04 01:56:14;;;;;;;2.75;1.65;;;19.80;1.00;;;;;;7378510;19;20399;-60
2022/07/04 01:58:44;;;;;;;3.72;1.65;;;19.90;1.00;;;;;;7364461;19;20014;-60
2022/07/04 02:03:57;;;;;;;5.43;2.05;;;19.80;1.00;;;;;;7364609;19;20010;-59
2022/07/04 02:06:30;;;;;;;2.03;1.83;;;19.60;1.00;;;;;;7360992;19;20006;-60
2022/07/04 02:14:27;;;;;;;5.82;1.65;;;19.50;1.00;;;;;;7371552;19;20024;-61
2022/07/04 02:16:56;;;;;;;4.38;1.75;;;19.50;1.00;;;;;;7380581;19;20469;-59
2022/07/04 02:19:27;;;;;;;4.13;1.77;;;19.40;1.00;;;;;;7364765;19;20021;-59
2022/07/04 02:21:59;;;;;;;3.67;1.80;;;19.40;1.00;;;;;;7365264;19;20022;-59
2022/07/04 02:24:29;;;;;;;2.60;1.73;;;19.20;1.00;;;;;;7361897;19;20011;-59
2022/07/04 02:26:59;;;;;;;3.83;1.75;;;19.30;1.00;;;;;;7357371;19;20393;-59
2022/07/04 02:29:29;;;;;;;3.63;1.90;;;19.20;1.00;;;;;;7368442;19;20014;-60
2022/07/04 02:31:59;;;;;;;3.90;1.90;;;19.20;1.00;;;;;;7391571;19;20032;-59
2022/07/04 02:34:29;;;;;;;4.18;2.17;;;19.20;1.00;;;;;;7369196;19;20012;-59
2022/07/04 02:37:02;;;;;;;4.45;1.65;;;19.10;1.00;;;;;;7365707;19;20023;-60
2022/07/04 02:39:32;;;;;;;2.95;1.73;;;19.10;1.00;;;;;;7371159;19;20171;-59
2022/07/04 02:42:02;;;;;;;10.00;3.30;;;19.10;1.00;;;;;;7372422;19;20086;-59
2022/07/04 02:44:31;;;;;;;4.75;2.05;;;19.10;1.00;;;;;;7368111;19;20018;-60
2022/07/04 02:47:01;;;;;;;4.40;1.88;;;19.00;1.00;;;;;;7384761;19;20018;-60
2022/07/04 02:49:31;;;;;;;3.28;1.98;;;19.10;1.00;;;;;;7371662;19;20007;-60
2022/07/04 02:52:04;;;;;;;3.67;2.10;;;19.00;1.00;;;;;;7371168;19;20018;-59
2022/07/04 02:54:34;;;;;;;4.68;1.70;;;19.00;1.00;;;;;;7368538;19;20013;-59
2022/07/04 02:57:04;;;;;;;3.40;1.67;;;19.00;1.00;;;;;;7366010;19;20077;-59
2022/07/04 02:59:33;;;;;;;3.78;1.70;;;18.90;1.00;;;;;;7370775;19;20007;-59
2022/07/04 03:02:03;;;;;;;7.57;2.00;;;18.90;1.00;;;;;;7392846;19;20074;-59
2022/07/04 03:04:34;;;;;;;2.55;1.92;;;18.90;1.00;;;;;;7367368;19;20010;-59
2022/07/04 03:07:07;;;;;;;4.45;2.03;;;18.90;1.00;;;;;;7367383;19;20566;-59
2022/07/04 03:09:37;;;;;;;2.85;1.70;;;18.80;1.00;;;;;;7371367;19;20067;-59
2022/07/04 03:12:08;;;;;;;3.85;1.70;;;18.80;1.00;;;;;;7369855;19;20014;-59
2022/07/04 03:14:38;;;;;;;3.17;1.80;;;18.80;1.00;;;;;;7367026;19;20015;-59
2022/07/04 03:17:08;;;;;;;5.57;1.75;;;18.70;1.00;;;;;;7386701;19;20446;-59
2022/07/04 03:19:38;;;;;;;4.97;1.90;;;18.80;1.00;;;;;;7370202;19;20519;-59
2022/07/04 03:22:10;;;;;;;5.28;2.10;;;18.70;1.00;;;;;;7369541;19;20014;-59
2022/07/04 03:24:40;;;;;;;6.28;2.15;;;18.70;1.00;;;;;;7365655;19;20025;-60
2022/07/04 03:27:10;;;;;;;3.10;1.70;;;18.60;1.00;;;;;;7363995;19;20099;-59
2022/07/04 03:29:40;;;;;;;3.47;1.85;;;18.60;1.00;;;;;;7369435;19;20074;-59
2022/07/04 03:32:10;;;;;;;5.10;2.10;;;18.60;1.00;;;;;;7390653;19;20090;-59
2022/07/04 03:34:40;;;;;;;3.40;1.73;;;18.50;1.00;;;;;;7366143;19;20011;-59
2022/07/04 03:37:13;;;;;;;6.15;2.00;;;18.60;1.00;;;;;;7365651;19;20028;-60
2022/07/04 03:39:43;;;;;;;3.28;2.00;;;18.50;1.00;;;;;;7369530;19;20509;-60
2022/07/04 03:42:19;;;;;;;3.63;1.85;;;18.50;1.00;;;;;;7367655;19;20364;-60
2022/07/04 03:44:49;;;;;;;6.13;1.90;;;18.50;1.00;;;;;;7365457;19;20018;-60
2022/07/04 03:47:19;;;;;;;5.95;2.00;;;18.60;1.00;;;;;;7386947;19;20010;-60
2022/07/04 03:49:49;;;;;;;5.80;2.05;;;18.60;1.00;;;;;;7368626;19;20526;-59
2022/07/04 03:52:21;;;;;;;3.70;1.95;;;18.60;1.00;;;;;;7366884;19;20494;-60
2022/07/04 03:54:51;;;;;;;3.45;1.77;;;18.50;1.00;;;;;;7364623;19;20013;-60
2022/07/04 03:57:21;;;;;;;3.88;1.70;;;18.40;1.00;;;;;;7364850;19;20458;-60
2022/07/04 03:59:51;;;;;;;6.07;1.98;;;18.40;1.00;;;;;;7369327;19;20466;-60
2022/07/04 04:02:21;;;;;;;4.38;1.70;;;18.40;1.00;;;;;;7391794;19;20481;-60
2022/07/04 04:07:36;;;;;;;8.35;2.00;;;18.50;1.00;;;;;;7364914;19;20082;-60
2022/07/04 04:10:07;;;;;;;3.22;1.95;;;18.40;1.00;;;;;;7368879;19;20085;-59
2022/07/04 04:12:37;;;;;;;4.72;2.10;;;18.50;1.00;;;;;;7367762;19;20011;-60
2022/07/04 04:15:08;;;;;;;5.18;2.03;;;19.00;1.00;;;;;;7364373;19;20018;-60
2022/07/04 04:17:38;;;;;;;4.32;1.92;;;19.30;1.00;;;;;;7362739;19;20052;-60
2022/07/04 04:20:10;;;;;;;2.20;1.80;;;19.10;1.00;;;;;;7390112;19;20014;-60
2022/07/04 04:22:42;;;;;;;5.88;2.17;;;19.20;1.00;;;;;;7368200;19;20014;-60
2022/07/04 04:25:12;;;;;;;4.38;1.90;;;19.00;1.00;;;;;;7362917;19;20006;-60
2022/07/04 04:27:42;;;;;;;3.78;2.15;;;19.00;1.00;;;;;;7364547;19;20011;-60
2022/07/04 04:30:13;;;;;;;5.95;2.28;;;18.80;1.00;;;;;;7368654;19;20014;-60
2022/07/04 04:32:43;;;;;;;4.38;2.28;;;19.60;1.00;;;;;;7367823;19;20117;-60
2022/07/04 04:35:13;;;;;;;4.00;2.03;;;19.30;1.00;;;;;;7385820;19;20017;-60
2022/07/04 04:37:45;;;;;;;7.93;2.20;;;19.30;1.00;;;;;;7361483;19;20549;-60
2022/07/04 04:40:16;;;;;;;3.90;2.10;;;19.30;1.00;;;;;;7367043;19;20007;-60
2022/07/04 04:42:46;;;;;;;2.30;2.00;;;19.50;1.00;;;;;;7367891;19;20089;-60
2022/07/04 04:45:16;;;;;;;3.00;1.95;;;19.80;1.00;;;;;;7363386;19;20010;-60
2022/07/04 04:47:46;;;;;;;3.13;1.70;;;20.00;1.00;;;;;;7364663;19;20030;-60
2022/07/04 04:50:16;;;;;;;3.70;2.05;;;20.00;1.00;;;;;;7389241;19;20010;-60
2022/07/04 04:52:48;;;;;;;3.33;1.85;;;20.00;1.00;;;;;;7365383;19;20070;-59
2022/07/04 04:55:18;;;;;;;5.43;1.67;;;20.10;1.00;;;;;;7362334;19;20006;-59
2022/07/04 04:57:48;;;;;;;4.50;1.75;;;20.10;1.00;;;;;;7363654;19;20537;-59
2022/07/04 05:00:18;;;;;;;3.30;2.00;;;20.50;1.00;;;;;;7368332;19;20014;-59
2022/07/04 05:02:48;;;;;;;5.15;2.25;;;19.80;1.00;;;;;;7366826;19;20027;-60
2022/07/04 05:05:18;;;;;;;3.83;1.90;;;19.70;1.00;;;;;;7384100;19;20033;-60
2022/07/04 05:07:51;;;;;;;2.95;1.60;;;20.00;1.00;;;;;;7363396;19;20014;-60
2022/07/04 05:10:21;;;;;;;4.93;2.05;;;20.10;1.00;;;;;;7367001;19;20499;-60
2022/07/04 05:12:51;;;;;;;5.60;2.00;;;21.20;1.00;;;;;;7365798;19;20661;-60
2022/07/04 05:15:21;;;;;;;4.40;2.00;;;21.20;1.00;;;;;;7360733;19;20130;-60
2022/07/04 05:17:51;;;;;;;4.05;1.75;;;20.70;1.00;;;;;;7362299;19;20081;-60
2022/07/04 05:20:21;;;;;;;4.40;1.90;;;20.00;1.00;;;;;;7387963;19;20014;-60
2022/07/04 05:22:53;;;;;;;5.28;1.80;;;19.90;1.00;;;;;;7366249;19;20528;-60
2022/07/04 05:25:23;;;;;;;5.10;1.83;;;21.80;1.00;;;;;;7360815;19;20388;-60
2022/07/04 05:27:53;;;;;;;4.80;1.88;;;20.70;1.00;;;;;;7362377;19;20030;-60
2022/07/04 05:30:23;;;;;;;6.65;2.00;;;21.90;1.00;;;;;;7366204;19;20021;-61
2022/07/04 05:32:53;;;;;;;3.67;2.35;;;22.00;1.00;;;;;;7363487;19;20401;-60
2022/07/04 05:35:23;;;;;;;5.28;1.75;;;21.50;1.00;;;;;;7381261;19;20007;-60
2022/07/04 05:37:55;;;;;;;4.45;1.90;;;22.60;1.00;;;;;;7362088;19;20014;-60
2022/07/04 05:40:25;;;;;;;2.83;1.85;;;23.50;1.00;;;;;;7365365;19;20011;-60
2022/07/04 05:42:56;;;;;;;4.15;2.08;;;21.70;1.00;;;;;;7365981;19;20066;-60
2022/07/04 05:45:26;;;;;;;3.33;1.70;;;20.90;1.00;;;;;;7361513;19;20006;-60
2022/07/04 05:47:56;;;;;;;5.03;1.83;;;20.50;1.00;;;;;;7362827;19;20090;-60
2022/07/04 05:50:26;;;;;;;4.88;1.70;;;20.30;1.00;;;;;;7385237;19;20078;-63
2022/07/04 05:53:04;;;;;;;4.68;2.20;;;22.80;1.00;;;;;;7385994;19;20013;-61
2022/07/04 05:55:34;;;;;;;2.72;1.50;;;23.10;1.00;;;;;;7358088;19;20015;-60
2022/07/04 05:58:04;;;;;;;2.97;1.48;;;22.20;1.00;;;;;;7362839;19;20792;-60
2022/07/04 06:00:34;;;;;;;2.13;1.60;;;21.70;1.00;;;;;;7365511;19;20017;-60
2022/07/04 06:03:04;;;;;;;2.65;1.50;;;23.10;1.00;;;;;;7365063;19;20093;-60
2022/07/04 06:05:34;;;;;;;2.28;1.73;;;23.30;1.00;;;;;;7365142;19;20013;-60
2022/07/04 06:08:07;;;;;;;5.25;1.92;;;22.20;1.00;;;;;;7391662;19;20029;-60
2022/07/04 06:10:37;;;;;;;5.40;2.05;;;22.00;1.00;;;;;;7371506;19;20094;-60
2022/07/04 06:13:07;;;;;;;4.75;1.95;;;21.50;1.00;;;;;;7370927;19;20025;-60
2022/07/04 06:15:39;;;;;;;6.47;2.00;;;21.00;1.00;;;;;;7365510;19;20395;-61
2022/07/04 06:18:09;;;;;;;4.13;1.70;;;21.00;1.00;;;;;;7368618;19;20493;-60
2022/07/04 06:20:39;;;;;;;3.15;1.42;;;20.70;1.00;;;;;;7369430;19;20011;-60
2022/07/04 06:23:12;;;;;;;4.40;1.75;;;20.40;1.00;;;;;;7393285;19;20054;-62
2022/07/04 06:25:42;;;;;;;2.92;1.63;;;20.40;1.00;;;;;;7362372;19;20515;-60
2022/07/04 06:28:12;;;;;;;5.63;2.00;;;20.50;1.00;;;;;;7369825;19;20078;-60
2022/07/04 06:31:00;;;;;;;4.35;1.55;;;20.40;1.00;;;;;;7370213;19;20526;-60
2022/07/04 06:33:30;;;;;;;3.58;1.80;;;20.40;1.00;;;;;;7371246;19;20515;-59
2022/07/04 06:35:58;;;;;;;4.57;1.90;;;20.70;1.00;;;;;;7362362;19;20018;-60
2022/07/04 06:38:31;;;;;;;3.55;1.80;;;20.60;1.00;;;;;;7370836;19;20011;-61
2022/07/04 06:41:02;;;;;;;3.65;2.05;;;21.00;1.00;;;;;;7390609;19;20102;-61
2022/07/04 06:43:31;;;;;;;3.45;2.33;;;21.30;1.00;;;;;;7371445;19;20465;-61
2022/07/04 06:46:01;;;;;;;4.50;1.80;;;21.90;1.00;;;;;;7361743;19;20012;-59
2022/07/04 06:48:32;;;;;;;4.28;1.80;;;21.20;1.00;;;;;;7368819;19;20010;-60
2022/07/04 06:51:01;;;;;;;2.13;1.60;;;21.40;1.00;;;;;;7368550;19;20051;-60
2022/07/04 06:53:34;;;;;;;4.10;1.88;;;20.90;1.00;;;;;;7369049;19;20138;-60
2022/07/04 06:56:04;;;;;;;2.72;1.73;;;21.30;1.00;;;;;;7381023;19;20123;-60
2022/07/04 06:58:34;;;;;;;5.95;1.95;;;21.30;1.00;;;;;;7369378;19;20011;-61
2022/07/04 07:01:04;;;;;;;2.83;1.77;;;21.60;1.00;;;;;;7370429;19;20027;-60
2022/07/04 07:03:34;;;;;;;4.35;1.58;;;21.70;1.00;;;;;;7370150;19;20014;-60
2022/07/04 07:06:04;;;;;;;5.05;1.90;;;21.00;1.00;;;;;;7361550;19;20017;-60
2022/07/04 07:08:37;;;;;;;2.80;1.65;;;20.90;1.00;;;;;;7369911;19;20010;-60
2022/07/04 07:11:16;;;;;;;8.55;1.88;;;21.00;1.00;;;;;;7391131;19;20473;-60
2022/07/04 07:13:49;;;;;;;3.85;2.78;;;21.00;1.00;;;;;;7368111;19;20010;-60
2022/07/04 07:16:20;;;;;;;3.60;1.73;;;20.60;1.00;;;;;;7360710;19;20011;-61
2022/07/04 07:18:51;;;;;;;5.60;1.98;;;20.70;1.00;;;;;;7367901;19;20062;-61
2022/07/04 07:21:21;;;;;;;4.72;2.20;;;21.40;1.00;;;;;;7369463;19;20514;-60
2022/07/04 07:23:54;;;;;;;4.00;2.05;;;21.20;1.00;;;;;;7369102;19;20497;-60
2022/07/04 07:26:26;;;;;;;2.50;2.28;;;20.90;1.00;;;;;;7375477;19;20073;-61
2022/07/04 07:28:56;;;;;;;6.35;1.90;;;21.20;1.00;;;;;;7388982;19;20017;-61
2022/07/04 07:31:26;;;;;;;3.80;2.00;;;21.00;1.00;;;;;;7368070;19;20402;-61
2022/07/04 07:33:56;;;;;;;3.05;1.90;;;21.70;1.00;;;;;;7366217;19;20017;-61
2022/07/04 07:36:26;;;;;;;2.50;1.73;;;21.20;1.00;;;;;;7363424;19;20459;-60
2022/07/04 07:38:58;;;;;;;3.53;1.80;;;20.90;1.00;;;;;;7368455;19;20017;-60
2022/07/04 07:41:28;;;;;;;3.80;1.70;;;20.90;1.00;;;;;;7368868;19;20031;-61
2022/07/04 07:43:58;;;;;;;4.53;2.08;;;21.20;1.00;;;;;;7388368;19;20031;-60
2022/07/04 07:46:28;;;;;;;3.78;2.08;;;20.90;1.00;;;;;;7362067;19;20013;-60
2022/07/04 07:48:58;;;;;;;2.95;1.60;;;20.80;1.00;;;;;;7368812;19;20074;-59
2022/07/04 07:51:28;;;;;;;2.42;1.67;;;21.10;1.00;;;;;;7369932;19;20342;-61
2022/07/04 07:54:01;;;;;;;6.80;2.22;;;20.90;1.00;;;;;;7366215;19;20006;-62
2022/07/04 07:56:51;;;;;;;5.75;2.33;;;20.60;1.00;;;;;;7361892;19;20021;-60
2022/07/04 07:59:21;;;;;;;4.47;1.90;;;20.90;1.00;;;;;;7390280;19;20386;-60
2022/07/04 08:01:51;;;;;;;5.38;2.42;;;21.00;1.00;;;;;;7368336;19;20014;-61
2022/07/04 08:04:34;;;;;;;4.40;2.10;;;20.90;1.00;;;;;;7365431;19;20085;-60
2022/07/04 08:07:05;;;;;;;2.88;2.08;;;20.80;1.00;;;;;;7364295;19;20010;-60
2022/07/04 08:09:54;;;;;;;3.22;2.25;;;21.10;1.00;;;;;;7367950;19;20045;-61
2022/07/04 08:12:24;;;;;;;3.97;2.15;;;20.70;1.00;;;;;;7368740;19;20098;-61
2022/07/04 08:14:53;;;;;;;3.50;2.15;;;20.70;1.00;;;;;;7361905;19;20474;-60
2022/07/04 08:17:23;;;;;;;3.55;2.10;;;20.60;1.00;;;;;;7385060;19;20006;-61
2022/07/04 08:19:53;;;;;;;2.55;1.90;;;20.90;1.00;;;;;;7366968;19;20014;-60
2022/07/04 08:22:23;;;;;;;3.78;2.15;;;20.60;1.00;;;;;;7366143;19;20041;-60
2022/07/04 08:24:55;;;;;;;3.63;2.58;;;20.80;1.00;;;;;;7359960;19;20422;-60
2022/07/04 08:27:25;;;;;;;4.18;2.08;;;21.10;1.00;;;;;;7362293;19;20498;-60
2022/07/04 08:30:01;;;;;;;4.55;2.40;;;20.90;1.00;;;;;;7365296;19;20485;-60
2022/07/04 08:32:33;;;;;;;4.03;2.33;;;21.40;1.00;;;;;;7367306;19;20014;-60
2022/07/04 08:35:03;;;;;;;6.00;2.38;;;21.30;1.00;;;;;;7382098;19;20030;-60
2022/07/04 08:37:33;;;;;;;6.07;2.83;;;21.30;1.00;;;;;;7364368;19;20015;-59
2022/07/04 08:40:07;;;;;;;5.57;2.40;;;21.20;1.00;;;;;;7365953;19;20024;-60
2022/07/04 08:42:40;;;;;;;5.55;2.30;;;21.20;1.00;;;;;;7367642;19;20018;-60
2022/07/04 08:45:10;;;;;;;3.85;2.00;;;21.20;1.00;;;;;;7361342;19;20013;-59
2022/07/04 08:47:44;;;;;;;5.30;2.10;;;21.60;1.00;;;;;;7363333;19;20031;-62
2022/07/04 08:50:18;;;;;;;3.28;2.22;;;21.40;1.00;;;;;;7388003;19;20027;-61
2022/07/04 08:52:50;;;;;;;;;;;22.00;1.00;;;;;;7366796;19;20011;-61
2022/07/04 09:00:48;;;;;;;3.25;2.03;;;21.80;1.00;;;;;;7365176;19;20010;-60
2022/07/04 09:03:18;;;;;;;3.08;2.40;;;22.10;1.00;;;;;;7366479;19;20013;-61
2022/07/04 09:05:48;;;;;;;3.72;2.20;;;22.10;1.00;;;;;;7360135;19;20030;-59
2022/07/04 09:08:18;;;;;;;6.47;2.47;;;22.40;1.00;;;;;;7386362;19;20018;-60
2022/07/04 09:10:51;;;;;;;2.97;2.03;;;21.80;1.00;;;;;;7364261;19;20074;-59
2022/07/04 09:13:22;;;;;;;4.07;2.00;;;22.10;1.00;;;;;;7365415;19;20010;-61
2022/07/04 09:15:53;;;;;;;3.88;2.15;;;22.80;1.00;;;;;;7353467;19;20458;-60
2022/07/04 09:18:26;;;;;;;4.25;2.28;;;22.40;1.00;;;;;;7360296;19;20032;-60
2022/07/04 09:20:57;;;;;;;5.75;2.15;;;23.00;1.00;;;;;;7363275;19;20006;-60
2022/07/04 09:23:30;;;;;;;4.03;2.05;;;23.50;1.00;;;;;;7373605;19;20042;-60
2022/07/04 09:26:15;;;;;;;3.53;1.80;;;24.10;1.00;;;;;;7377473;19;20554;-60
2022/07/04 09:28:47;;;;;;;6.97;2.17;;;23.00;1.00;;;;;;7363179;19;20031;-59
2022/07/04 09:31:20;;;;;;;4.47;2.25;;;22.90;1.00;;;;;;7362571;19;20435;-59
2022/07/04 09:33:53;;;;;;;2.67;2.20;;;23.10;1.00;;;;;;7363811;19;20017;-60
2022/07/04 09:36:25;;;;;;;3.15;2.20;;;22.10;1.00;;;;;;7357625;19;20549;-60
2022/07/04 09:39:15;;;;;;;5.78;1.92;;;22.60;1.00;;;;;;7360171;19;20150;-60
2022/07/04 09:42:01;;;;;;;3.28;2.33;;;22.60;1.00;;;;;;7364076;19;20393;-59
2022/07/04 09:44:45;;;;;;;3.40;1.90;;;23.40;1.00;;;;;;7361508;19;20443;-60
2022/07/04 09:47:25;;;;;;;3.10;2.08;;;23.50;1.00;;;;;;7381410;19;20526;-61
2022/07/04 09:50:02;;;;;;;4.03;1.92;;;23.10;1.00;;;;;;7363349;19;20553;-60
2022/07/04 09:52:33;;;;;;;3.80;1.98;;;22.90;1.00;;;;;;7359694;19;20050;-60
2022/07/04 09:55:05;;;;;;;5.72;2.08;;;23.20;1.00;;;;;;7357195;19;20031;-59
2022/07/04 09:57:37;;;;;;;5.30;1.90;;;23.60;1.00;;;;;;7357973;19;20014;-60
2022/07/04 10:00:23;;;;;;;2.75;1.90;;;23.60;1.00;;;;;;7363147;19;20018;-61
2022/07/04 10:02:53;;;;;;;5.25;1.90;;;23.80;1.00;;;;;;7363915;19;20010;-59
2022/07/04 10:05:26;;;;;;;3.70;1.58;;;23.10;1.00;;;;;;7380621;19;20010;-60
2022/07/04 10:07:57;;;;;;;3.15;1.70;;;23.30;1.00;;;;;;7356734;19;20600;-59
2022/07/04 10:10:35;;;;;;;3.50;1.60;;;23.40;1.00;;;;;;7361587;19;20072;-60
2022/07/04 10:13:09;;;;;;;4.03;1.85;;;23.60;1.00;;;;;;7362224;19;20007;-60
2022/07/04 10:15:41;;;;;;;3.35;2.10;;;23.20;1.00;;;;;;7354325;19;20014;-61
2022/07/04 10:18:12;;;;;;;3.45;1.80;;;24.00;1.00;;;;;;7360257;19;20081;-61
2022/07/04 10:20:44;;;;;;;2.97;1.60;;;24.30;1.00;;;;;;7365286;19;20074;-61
2022/07/04 10:23:14;;;;;;;2.10;1.88;;;24.30;1.00;;;;;;7384081;19;20074;-62
2022/07/04 10:25:48;;;;;;;2.50;1.33;;;23.80;1.00;;;;;;7356107;19;20573;-60
2022/07/04 10:28:21;;;;;;;2.15;1.33;;;24.30;1.00;;;;;;7359910;19;20081;-61
2022/07/04 10:30:54;;;;;;;3.67;1.60;;;24.70;1.00;;;;;;7362075;19;20367;-60
2022/07/04 10:33:27;;;;;;;2.47;1.10;;;25.30;1.00;;;;;;7364612;19;20050;-61
2022/07/04 10:36:01;;;;;;;2.85;1.38;;;25.70;1.00;;;;;;7355761;19;20090;-61
2022/07/04 10:38:32;;;;;;;;;;;24.50;1.00;;;;;;7363816;19;20018;-61
2022/07/04 10:41:05;;;;;;;4.43;1.52;;;25.10;1.00;;;;;;7384531;19;20343;-61
2022/07/04 10:43:53;;;;;;;;;;;25.70;1.00;;;;;;7363689;19;20006;-61
2022/07/04 10:46:37;;;;;;;2.17;1.40;;;25.90;1.00;;;;;;7355352;19;20362;-61
2022/07/04 10:49:10;;;;;;;3.10;1.65;;;25.80;1.00;;;;;;7361327;19;20383;-61
2022/07/04 10:51:45;;;;;;;3.72;2.20;;;26.10;1.00;;;;;;7371164;19;20460;-61
2022/07/04 10:54:17;;;;;;;6.85;4.25;;;25.50;1.00;;;;;;7368304;19;20014;-60
2022/07/04 10:56:50;;;;;;;7.60;5.18;;;26.20;1.00;;;;;;7361910;19;20018;-61
2022/07/04 10:59:25;;;;;;;6.63;2.67;;;26.10;1.00;;;;;;7390806;19;20019;-61
2022/07/04 11:02:26;;;;;;;6.57;1.42;;;26.00;1.00;;;;;;7370426;19;20024;-61
2022/07/04 11:05:01;;;;;;;2.92;1.65;;;25.30;1.00;;;;;;7364352;19;20648;-60
2022/07/04 11:07:59;;;;;;;4.13;1.60;;;25.50;1.00;;;;;;7365206;19;20003;-61
2022/07/04 11:10:33;;;;;;;4.00;1.50;;;25.30;1.00;;;;;;7364856;19;20102;-60
2022/07/04 11:13:20;;;;;;;3.63;1.92;;;24.70;1.00;;;;;;7367996;19;20102;-60
2022/07/04 11:16:08;;;;;;;1.92;1.50;;;25.10;1.00;;;;;;7361665;19;20013;-60
2022/07/04 11:18:46;;;;;;;6.75;1.48;;;24.70;1.00;;;;;;7369609;19;20093;-62
2022/07/04 11:21:21;;;;;;;3.38;1.55;;;25.80;1.00;;;;;;7367265;19;20010;-62
2022/07/04 11:23:54;;;;;;;6.70;1.50;;;26.40;1.00;;;;;;7369711;19;20014;-61
2022/07/04 11:26:26;;;;;;;2.55;1.52;;;26.00;1.00;;;;;;7381270;19;21466;-62
2022/07/04 11:28:56;;;;;;;2.95;1.35;;;26.00;1.00;;;;;;7368561;19;20070;-62
2022/07/04 11:31:42;;;;;;;2.92;1.13;;;25.80;1.00;;;;;;7366883;19;20010;-61
2022/07/04 11:34:13;;;;;;;3.67;1.27;;;25.10;1.00;;;;;;7368201;19;20097;-61
2022/07/04 11:36:44;;;;;;;2.83;1.30;;;25.40;1.00;;;;;;7360376;19;20018;-60
2022/07/04 11:39:18;;;;;;;2.22;1.15;;;25.80;1.00;;;;;;7366875;19;20098;-61
2022/07/04 11:47:22;;;;;;;3.58;1.60;;;26.00;1.00;;;;;;7383793;19;20018;-62
2022/07/04 11:49:54;;;;;;;3.33;1.38;;;24.90;1.00;;;;;;7367546;19;20470;-61
2022/07/04 11:52:26;;;;;;;2.92;1.38;;;25.00;1.00;;;;;;7365649;19;20006;-61
2022/07/04 11:55:18;;;;;;;1.77;1.42;;;25.00;1.00;;;;;;7362347;19;20014;-61
2022/07/04 11:57:50;;;;;;;3.53;1.08;;;25.40;1.00;;;;;;7360884;19;20078;-61
2022/07/04 12:00:22;;;;;;;3.88;1.50;;;25.00;1.00;;;;;;7365777;19;20082;-62
2022/07/04 12:02:55;;;;;;;4.25;1.75;;;25.80;1.00;;;;;;7362450;19;20014;-62
2022/07/04 12:05:25;;;;;;;3.83;1.40;;;26.60;1.00;;;;;;7385481;19;20439;-62
2022/07/04 12:07:55;;;;;;;5.15;1.70;;;26.80;1.00;;;;;;7363549;19;20017;-61
2022/07/04 12:10:45;;;;;;;5.18;1.80;;;26.90;1.00;;;;;;7366398;19;20533;-61
2022/07/04 12:13:19;;;;;;;5.00;1.65;;;26.20;1.00;;;;;;7368129;19;20465;-63
2022/07/04 12:15:52;;;;;;;;;;;26.10;1.00;;;;;;7362285;19;20074;-62
2022/07/04 12:18:28;;;;;;;5.68;1.65;;;26.20;1.00;;;;;;7365842;19;19982;-63
2022/07/04 12:21:12;;;;;;;3.47;1.33;;;26.60;1.00;;;;;;7367601;19;20654;-62
2022/07/04 12:23:42;;;;;;;2.58;1.45;;;26.10;1.00;;;;;;7368561;19;20130;-61
2022/07/04 12:26:34;;;;;;;4.75;1.50;;;26.10;1.00;;;;;;7359047;19;20025;-62
2022/07/04 12:29:09;;;;;;;6.78;1.42;;;25.40;1.00;;;;;;7389791;19;20010;-62
2022/07/04 12:31:42;;;;;;;5.35;1.60;;;25.80;1.00;;;;;;7365812;19;20010;-62
2022/07/04 12:34:20;;;;;;;4.10;1.52;;;26.40;1.00;;;;;;7365223;19;20591;-61
2022/07/04 12:36:53;;;;;;;2.67;1.30;;;26.50;1.00;;;;;;7359550;19;20478;-61
2022/07/04 12:39:31;;;;;;;2.40;1.60;;;26.10;1.00;;;;;;7367499;19;19999;-62
2022/07/04 12:42:10;;;;;;;4.05;1.63;;;26.20;1.00;;;;;;7367445;19;20041;-63
2022/07/04 12:44:40;;;;;;;1.85;1.33;;;26.10;1.00;;;;;;7362626;19;20006;-63
2022/07/04 12:47:11;;;;;;;2.80;1.65;;;26.10;1.00;;;;;;7383719;19;20022;-61
2022/07/04 12:49:49;;;;;;;8.80;1.67;;;26.40;1.00;;;;;;7366284;19;20025;-62
2022/07/04 12:52:20;;;;;;;3.25;1.50;;;26.60;1.00;;;;;;7366641;19;20022;-63
2022/07/04 12:55:06;;;;;;;4.55;1.50;;;26.80;1.00;;;;;;7362313;19;20101;-61
2022/07/04 12:57:37;;;;;;;6.28;1.80;;;26.30;1.00;;;;;;7361405;19;20498;-62
2022/07/04 13:00:09;;;;;;;4.32;1.65;;;26.60;1.00;;;;;;7365565;19;20007;-62
2022/07/04 13:02:59;;;;;;;4.15;1.67;;;27.00;1.00;;;;;;7366646;19;20044;-62
2022/07/04 13:05:31;;;;;;;2.85;1.50;;;27.00;1.00;;;;;;7359813;19;20205;-62
2022/07/04 13:08:01;;;;;;;2.15;1.58;;;26.50;1.00;;;;;;7385323;19;20077;-62
2022/07/04 13:10:32;;;;;;;3.42;2.00;;;26.80;1.00;;;;;;7365674;19;20006;-62
2022/07/04 13:13:03;;;;;;;3.47;1.58;;;26.80;1.00;;;;;;7361447;19;20297;-63
2022/07/04 13:15:33;;;;;;;7.30;1.65;;;27.10;1.00;;;;;;7360431;19;20010;-63
2022/07/04 13:18:03;;;;;;;2.03;1.63;;;27.30;1.00;;;;;;7362215;19;20089;-62
2022/07/04 13:20:35;;;;;;;2.45;1.63;;;26.80;1.00;;;;;;7364321;19;20486;-61
2022/07/04 13:23:05;;;;;;;3.63;1.70;;;26.30;1.00;;;;;;7387128;19;20020;-61
2022/07/04 13:25:46;;;;;;;3.88;1.50;;;26.20;1.00;;;;;;7358975;19;20011;-62
2022/07/04 13:28:16;;;;;;;3.65;1.55;;;26.90;1.00;;;;;;7362941;19;20011;-62
2022/07/04 13:30:46;;;;;;;3.08;1.38;;;26.80;1.00;;;;;;7365618;19;20014;-62
2022/07/04 13:33:16;;;;;;;2.45;1.75;;;27.20;1.00;;;;;;7365656;19;20526;-63
2022/07/04 13:35:49;;;;;;;4.82;1.50;;;26.60;1.00;;;;;;7357069;19;20026;-62
2022/07/04 13:38:19;;;;;;;2.80;1.40;;;26.80;1.00;;;;;;7383292;19;20006;-61
2022/07/04 13:40:49;;;;;;;3.92;1.40;;;26.70;1.00;;;;;;7364779;19;20144;-62
2022/07/04 13:43:19;;;;;;;3.28;1.80;;;26.60;1.00;;;;;;7364364;19;20025;-62
2022/07/04 13:45:49;;;;;;;2.25;1.60;;;26.90;1.00;;;;;;7353962;19;20044;-62